createdAt,value
2018-04-09T00:00:55.840Z,9.10
2018-04-09T00:02:58.433Z,9.00
2018-04-09T00:05:01.811Z,9.10
2018-04-09T00:07:04.398Z,9.00
2018-04-09T00:09:07.773Z,8.90
2018-04-09T00:11:10.362Z,8.80
2018-04-09T00:13:13.722Z,8.90
2018-04-09T00:15:16.347Z,8.90
2018-04-09T00:17:18.941Z,9.00
2018-04-09T00:19:21.562Z,9.00
2018-04-09T00:21:24.146Z,8.90
2018-04-09T00:23:26.740Z,8.90
2018-04-09T00:25:29.443Z,9.00
2018-04-09T00:27:32.039Z,8.90
2018-04-09T00:29:34.669Z,8.80
2018-04-09T00:31:37.253Z,8.60
2018-04-09T00:33:39.845Z,8.70
2018-04-09T00:35:42.581Z,8.80
2018-04-09T00:37:45.935Z,8.80
2018-04-09T00:39:48.581Z,8.80
2018-04-09T00:41:51.169Z,8.90
2018-04-09T00:43:53.765Z,8.80
2018-04-09T00:45:56.385Z,8.70
2018-04-09T00:47:59.071Z,8.50
2018-04-09T00:50:01.703Z,8.50
2018-04-09T00:52:04.325Z,8.60
2018-04-09T00:54:06.923Z,8.70
2018-04-09T00:56:09.606Z,8.60
2018-04-09T00:58:12.192Z,8.40
2018-04-09T01:00:14.793Z,8.40
2018-04-09T01:02:18.169Z,8.50
2018-04-09T01:04:20.764Z,8.50
2018-04-09T01:06:23.383Z,8.50
2018-04-09T01:08:26.052Z,8.60
2018-04-09T01:10:28.657Z,8.40
2018-04-09T01:12:31.346Z,8.40
2018-04-09T01:14:34.794Z,8.50
2018-04-09T01:16:37.427Z,8.50
2018-04-09T01:18:40.801Z,8.60
2018-04-09T01:20:43.520Z,8.60
2018-04-09T01:22:46.230Z,8.70
2018-04-09T01:24:48.835Z,8.80
2018-04-09T01:26:51.438Z,8.80
2018-04-09T01:28:54.029Z,8.70
2018-04-09T01:30:56.641Z,8.60
2018-04-09T01:32:59.248Z,8.70
2018-04-09T01:35:01.830Z,8.40
2018-04-09T01:37:05.217Z,8.50
2018-04-09T01:39:08.561Z,8.40
2018-04-09T01:41:11.233Z,8.40
2018-04-09T01:43:13.832Z,8.50
2018-04-09T01:45:16.423Z,8.30
2018-04-09T01:47:19.798Z,7.80
2018-04-09T01:49:22.401Z,7.80
2018-04-09T01:51:25.789Z,7.50
2018-04-09T01:53:29.143Z,7.40
2018-04-09T01:55:31.934Z,7.40
2018-04-09T01:57:34.543Z,7.30
2018-04-09T01:59:37.894Z,7.70
2018-04-09T02:01:40.503Z,7.70
2018-04-09T02:03:43.861Z,7.90
2018-04-09T02:05:46.454Z,7.90
2018-04-09T02:07:49.845Z,8.00
2018-04-09T02:09:53.209Z,7.80
2018-04-09T02:11:55.819Z,7.80
2018-04-09T02:13:59.190Z,7.50
2018-04-09T02:16:01.787Z,7.50
2018-04-09T02:18:05.221Z,7.40
2018-04-09T02:20:07.826Z,7.40
2018-04-09T02:22:10.429Z,7.40
2018-04-09T02:24:13.816Z,7.50
2018-04-09T02:26:17.226Z,7.50
2018-04-09T02:28:20.605Z,7.50
2018-04-09T02:30:23.987Z,7.70
2018-04-09T02:32:26.617Z,7.70
2018-04-09T02:34:29.256Z,7.80
2018-04-09T02:36:32.647Z,7.70
2018-04-09T02:38:36.074Z,7.60
2018-04-09T02:40:38.701Z,7.60
2018-04-09T02:42:41.314Z,7.60
2018-04-09T02:44:43.900Z,7.60
2018-04-09T02:46:46.474Z,7.60
2018-04-09T02:48:49.097Z,7.70
2018-04-09T02:50:51.682Z,7.70
2018-04-09T02:52:55.074Z,7.80
2018-04-09T02:54:58.429Z,7.80
2018-04-09T02:57:01.066Z,7.80
2018-04-09T02:59:03.726Z,7.80
2018-04-09T03:01:07.178Z,7.80
2018-04-09T03:03:09.907Z,7.80
2018-04-09T03:05:12.521Z,7.80
2018-04-09T03:07:15.118Z,7.70
2018-04-09T03:09:17.752Z,7.60
2018-04-09T03:11:20.328Z,7.70
2018-04-09T03:13:22.950Z,7.70
2018-04-09T03:15:25.552Z,7.80
2018-04-09T03:17:28.150Z,7.80
2018-04-09T03:19:30.812Z,7.80
2018-04-09T03:21:33.447Z,7.80
2018-04-09T03:23:36.044Z,7.90
2018-04-09T03:25:39.420Z,7.80
2018-04-09T03:27:42.008Z,7.90
2018-04-09T03:29:45.373Z,7.80
2018-04-09T03:31:47.971Z,7.80
2018-04-09T03:33:51.397Z,7.80
2018-04-09T03:35:54.707Z,7.80
2018-04-09T03:37:57.303Z,7.80
2018-04-09T03:39:59.949Z,7.90
2018-04-09T03:42:02.557Z,7.90
2018-04-09T03:44:05.161Z,8.00
2018-04-09T03:46:08.521Z,7.90
2018-04-09T03:48:11.116Z,7.90
2018-04-09T03:50:14.507Z,7.80
2018-04-09T03:52:17.888Z,7.70
2018-04-09T03:54:20.507Z,7.70
2018-04-09T03:56:23.090Z,7.80
2018-04-09T03:58:25.699Z,7.80
2018-04-09T04:00:28.375Z,7.80
2018-04-09T04:02:30.963Z,7.80
2018-04-09T04:04:33.572Z,7.60
2018-04-09T04:06:36.326Z,7.70
2018-04-09T04:08:39.698Z,7.80
2018-04-09T04:10:42.314Z,7.80
2018-04-09T04:12:44.993Z,7.80
2018-04-09T04:14:47.600Z,7.80
2018-04-09T04:17:02.091Z,7.90
2018-04-09T04:19:16.384Z,8.00
2018-04-09T04:21:30.682Z,8.00
2018-04-09T04:23:33.292Z,7.90
2018-04-09T04:25:35.893Z,7.90
2018-04-09T04:27:38.476Z,7.90
2018-04-09T04:29:41.199Z,7.90
2018-04-09T04:31:44.553Z,7.80
2018-04-09T04:33:47.151Z,7.80
2018-04-09T04:35:49.768Z,7.90
2018-04-09T04:37:52.437Z,7.90
2018-04-09T04:39:55.038Z,7.80
2018-04-09T04:41:57.705Z,7.60
2018-04-09T04:44:00.300Z,7.60
2018-04-09T04:46:02.913Z,7.70
2018-04-09T04:48:06.347Z,7.70
2018-04-09T04:50:08.969Z,7.60
2018-04-09T04:52:11.551Z,7.70
2018-04-09T04:54:14.947Z,7.50
2018-04-09T04:56:18.346Z,7.50
2018-04-09T04:58:21.715Z,7.50
2018-04-09T05:00:24.338Z,7.50
2018-04-09T05:02:27.702Z,7.40
2018-04-09T05:04:31.066Z,7.50
2018-04-09T05:06:33.689Z,7.40
2018-04-09T05:08:36.613Z,7.50
2018-04-09T05:10:39.217Z,7.50
2018-04-09T05:12:42.566Z,7.70
2018-04-09T05:14:45.153Z,7.60
2018-04-09T05:16:47.753Z,7.70
2018-04-09T05:18:51.129Z,7.60
2018-04-09T05:20:53.869Z,7.60
2018-04-09T05:22:56.453Z,7.80
2018-04-09T05:24:59.054Z,7.60
2018-04-09T05:27:01.653Z,7.60
2018-04-09T05:29:05.009Z,7.80
2018-04-09T05:31:07.622Z,7.70
2018-04-09T05:33:10.982Z,7.70
2018-04-09T05:35:13.558Z,7.70
2018-04-09T05:37:16.570Z,7.60
2018-04-09T05:39:19.185Z,7.80
2018-04-09T05:41:21.815Z,7.60
2018-04-09T05:43:25.175Z,7.80
2018-04-09T05:45:27.753Z,7.80
2018-04-09T05:47:30.353Z,7.70
2018-04-09T05:49:33.730Z,7.50
2018-04-09T05:51:36.344Z,7.50
2018-04-09T05:53:38.932Z,7.60
2018-04-09T05:55:41.551Z,7.70
2018-04-09T05:57:44.238Z,7.70
2018-04-09T05:59:46.823Z,7.80
2018-04-09T06:01:50.413Z,7.80
2018-04-09T06:03:53.813Z,7.90
2018-04-09T06:05:57.209Z,7.90
2018-04-09T06:08:00.601Z,8.00
2018-04-09T06:10:03.970Z,7.90
2018-04-09T06:12:08.090Z,7.90
2018-04-09T06:14:11.459Z,8.00
2018-04-09T06:16:14.126Z,8.00
2018-04-09T06:18:16.675Z,8.10
2018-04-09T06:20:19.273Z,8.20
2018-04-09T06:22:21.953Z,8.20
2018-04-09T06:24:24.545Z,8.20
2018-04-09T06:26:27.164Z,8.30
2018-04-09T06:28:29.745Z,8.20
2018-04-09T06:30:32.330Z,8.30
2018-04-09T06:32:34.948Z,8.40
2018-04-09T06:34:37.533Z,8.40
2018-04-09T06:36:40.910Z,8.70
2018-04-09T06:38:44.469Z,8.70
2018-04-09T06:40:47.136Z,8.90
2018-04-09T06:42:49.814Z,8.90
2018-04-09T06:44:52.384Z,8.90
2018-04-09T06:46:54.987Z,9.00
2018-04-09T06:48:57.592Z,9.10
2018-04-09T06:51:00.941Z,9.30
2018-04-09T06:53:03.542Z,9.30
2018-04-09T06:55:06.161Z,9.00
2018-04-09T06:57:08.774Z,9.10
2018-04-09T06:59:11.345Z,9.30
2018-04-09T07:01:14.714Z,9.70
2018-04-09T07:03:17.339Z,9.60
2018-04-09T07:05:19.922Z,9.70
2018-04-09T07:07:23.486Z,10.00
2018-04-09T07:09:26.086Z,10.00
2018-04-09T07:11:28.688Z,10.00
2018-04-09T07:13:31.305Z,10.10
2018-04-09T07:15:33.901Z,10.20
2018-04-09T07:17:36.525Z,10.20
2018-04-09T07:19:39.122Z,10.20
2018-04-09T07:21:41.725Z,10.10
2018-04-09T07:23:44.333Z,10.10
2018-04-09T07:25:46.925Z,10.20
2018-04-09T07:27:50.345Z,10.30
2018-04-09T07:29:52.941Z,10.20
2018-04-09T07:31:55.545Z,10.40
2018-04-09T07:33:58.949Z,10.10
2018-04-09T07:36:01.547Z,10.10
2018-04-09T07:38:04.958Z,10.50
2018-04-09T07:40:07.556Z,10.50
2018-04-09T07:42:10.141Z,10.60
2018-04-09T07:44:13.523Z,10.90
2018-04-09T07:46:16.126Z,10.90
2018-04-09T07:48:18.746Z,11.00
2018-04-09T07:50:21.425Z,11.10
2018-04-09T07:52:24.038Z,11.30
2018-04-09T07:54:27.415Z,11.30
2018-04-09T07:56:30.030Z,11.20
2018-04-09T07:58:33.410Z,11.40
2018-04-09T08:00:36.001Z,11.40
2018-04-09T08:02:38.604Z,11.50
2018-04-09T08:04:41.365Z,11.60
2018-04-09T08:06:44.003Z,11.80
2018-04-09T08:08:47.447Z,11.90
2018-04-09T08:10:50.068Z,11.90
2018-04-09T08:12:53.441Z,11.90
2018-04-09T08:14:56.102Z,11.90
2018-04-09T08:16:58.979Z,12.10
2018-04-09T08:19:01.628Z,12.20
2018-04-09T08:21:04.217Z,12.20
2018-04-09T08:23:06.818Z,12.30
2018-04-09T08:25:09.499Z,12.40
2018-04-09T08:27:12.086Z,12.40
2018-04-09T08:29:15.452Z,12.50
2018-04-09T08:31:18.074Z,12.50
2018-04-09T08:33:20.762Z,12.50
2018-04-09T08:35:23.371Z,12.40
2018-04-09T08:37:25.971Z,12.50
2018-04-09T08:39:28.600Z,12.70
2018-04-09T08:41:31.218Z,12.80
2018-04-09T08:43:34.654Z,13.20
2018-04-09T08:45:37.385Z,13.20
2018-04-09T08:47:39.968Z,13.30
2018-04-09T08:49:43.346Z,13.30
2018-04-09T08:51:45.930Z,13.30
2018-04-09T08:53:48.642Z,13.40
2018-04-09T08:55:51.285Z,13.40
2018-04-09T08:57:53.875Z,13.50
2018-04-09T08:59:56.489Z,13.40
2018-04-09T09:01:59.078Z,13.50
2018-04-09T09:04:01.679Z,13.50
2018-04-09T09:06:04.295Z,13.60
2018-04-09T09:08:06.894Z,13.60
2018-04-09T09:10:09.511Z,13.60
2018-04-09T09:12:12.924Z,13.60
2018-04-09T09:14:15.509Z,13.60
2018-04-09T09:16:18.117Z,13.70
2018-04-09T09:18:20.735Z,13.80
2018-04-09T09:20:24.113Z,14.00
2018-04-09T09:22:27.479Z,14.00
2018-04-09T09:24:31.715Z,14.10
2018-04-09T09:26:34.321Z,14.10
2018-04-09T09:28:36.973Z,14.30
2018-04-09T09:30:40.351Z,14.50
2018-04-09T09:32:42.946Z,14.50
2018-04-09T09:34:46.313Z,14.60
2018-04-09T09:36:48.926Z,14.50
2018-04-09T09:38:51.565Z,14.40
2018-04-09T09:40:54.137Z,14.30
2018-04-09T09:42:56.769Z,14.20
2018-04-09T09:44:59.366Z,14.10
2018-04-09T09:47:02.078Z,14.20
2018-04-09T09:49:05.439Z,14.40
2018-04-09T09:51:08.041Z,14.30
2018-04-09T09:53:10.777Z,14.50
2018-04-09T09:55:13.380Z,14.60
2018-04-09T09:57:15.978Z,14.50
2018-04-09T09:59:19.357Z,14.60
2018-04-09T10:01:26.922Z,14.60
2018-04-09T10:03:29.517Z,14.60
2018-04-09T10:05:32.138Z,14.60
2018-04-09T10:07:34.792Z,14.80
2018-04-09T10:09:37.353Z,14.80
2018-04-09T10:11:40.745Z,15.10
2018-04-09T10:13:44.104Z,15.10
2018-04-09T10:15:46.709Z,15.10
2018-04-09T10:17:50.251Z,15.10
2018-04-09T10:19:52.850Z,15.10
2018-04-09T10:21:56.232Z,15.10
2018-04-09T10:23:58.832Z,15.10
2018-04-09T10:26:01.418Z,15.20
2018-04-09T10:28:04.801Z,15.50
2018-04-09T10:30:07.405Z,15.50
2018-04-09T10:32:10.778Z,15.90
2018-04-09T10:34:14.147Z,16.00
2018-04-09T10:36:16.755Z,16.00
2018-04-09T10:38:20.153Z,16.20
2018-04-09T10:40:23.523Z,16.10
2018-04-09T10:42:26.143Z,16.10
2018-04-09T10:44:29.539Z,16.00
2018-04-09T10:46:32.141Z,16.00
2018-04-09T10:48:34.775Z,16.00
2018-04-09T10:50:37.447Z,16.00
2018-04-09T10:52:40.071Z,16.20
2018-04-09T10:54:42.661Z,16.20
2018-04-09T10:56:45.273Z,16.30
2018-04-09T10:58:47.906Z,16.40
2018-04-09T11:00:50.499Z,16.50
2018-04-09T11:02:53.893Z,16.70
2018-04-09T11:04:57.262Z,16.80
2018-04-09T11:06:59.845Z,16.80
2018-04-09T11:09:02.470Z,16.90
2018-04-09T11:11:05.071Z,16.90
2018-04-09T11:13:07.681Z,16.80
2018-04-09T11:15:11.035Z,16.90
2018-04-09T11:17:13.706Z,16.90
2018-04-09T11:19:16.324Z,16.90
2018-04-09T11:21:19.731Z,17.00
2018-04-09T11:23:22.341Z,17.00
2018-04-09T11:25:24.977Z,17.10
2018-04-09T11:27:28.331Z,17.00
2018-04-09T11:29:30.945Z,17.00
2018-04-09T11:31:34.289Z,17.00
2018-04-09T11:33:37.675Z,17.10
2018-04-09T11:35:40.263Z,17.10
2018-04-09T11:37:42.981Z,17.20
2018-04-09T11:39:46.371Z,17.10
2018-04-09T11:41:49.734Z,17.10
2018-04-09T11:43:52.352Z,17.10
2018-04-09T11:45:54.947Z,17.20
2018-04-09T11:47:57.536Z,17.30
2018-04-09T11:50:00.163Z,17.30
2018-04-09T11:52:02.914Z,17.20
2018-04-09T11:54:05.559Z,17.20
2018-04-09T11:56:08.190Z,17.20
2018-04-09T11:58:10.768Z,17.10
2018-04-09T12:00:14.141Z,17.30
2018-04-09T12:02:16.792Z,17.20
2018-04-09T12:04:19.375Z,17.20
2018-04-09T12:06:21.996Z,17.20
2018-04-09T12:08:24.606Z,17.20
2018-04-09T12:10:27.225Z,17.10
2018-04-09T12:12:30.616Z,17.00
2018-04-09T12:14:33.987Z,17.00
2018-04-09T12:16:36.620Z,17.00
2018-04-09T12:18:39.984Z,17.20
2018-04-09T12:20:43.412Z,17.30
2018-04-09T12:22:45.995Z,17.20
2018-04-09T12:24:48.587Z,17.30
2018-04-09T12:26:51.199Z,17.30
2018-04-09T12:28:54.570Z,17.50
2018-04-09T12:30:57.185Z,17.40
2018-04-09T12:32:59.813Z,17.50
2018-04-09T12:35:02.464Z,17.50
2018-04-09T12:37:05.085Z,17.50
2018-04-09T12:39:08.447Z,17.60
2018-04-09T12:41:11.078Z,17.50
2018-04-09T12:43:13.688Z,17.70
2018-04-09T12:45:16.274Z,17.80
2018-04-09T12:47:18.930Z,17.90
2018-04-09T12:49:21.541Z,17.90
2018-04-09T12:51:24.147Z,18.10
2018-04-09T12:53:26.765Z,18.20
2018-04-09T12:55:29.355Z,18.30
2018-04-09T12:57:31.967Z,18.60
2018-04-09T12:59:34.547Z,18.70
2018-04-09T13:01:37.164Z,18.90
2018-04-09T13:03:39.764Z,19.00
2018-04-09T13:05:42.364Z,19.10
2018-04-09T13:07:45.068Z,19.00
2018-04-09T13:09:47.653Z,19.00
2018-04-09T13:11:50.270Z,19.00
2018-04-09T13:13:52.918Z,19.10
2018-04-09T13:15:55.609Z,19.10
2018-04-09T13:17:58.226Z,19.20
2018-04-09T13:20:00.819Z,19.20
2018-04-09T13:22:04.201Z,19.10
2018-04-09T13:24:06.783Z,19.10
2018-04-09T13:26:09.373Z,19.10
2018-04-09T13:28:12.074Z,19.10
2018-04-09T13:30:15.436Z,19.00
2018-04-09T13:32:18.060Z,19.00
2018-04-09T13:34:20.710Z,19.00
2018-04-09T13:36:23.314Z,19.10
2018-04-09T13:38:25.938Z,19.30
2018-04-09T13:40:28.537Z,19.30
2018-04-09T13:42:31.173Z,19.30
2018-04-09T13:44:33.859Z,19.30
2018-04-09T13:46:36.463Z,19.40
2018-04-09T13:48:39.067Z,19.40
2018-04-09T13:50:41.660Z,19.40
2018-04-09T13:52:44.301Z,19.50
2018-04-09T13:54:47.661Z,19.50
2018-04-09T13:56:51.067Z,19.40
2018-04-09T13:58:53.702Z,19.40
2018-04-09T14:00:56.296Z,19.40
2018-04-09T14:02:58.952Z,19.40
2018-04-09T14:05:01.554Z,19.50
2018-04-09T14:07:04.139Z,19.60
2018-04-09T14:09:06.741Z,19.60
2018-04-09T14:11:09.341Z,19.70
2018-04-09T14:13:11.987Z,19.70
2018-04-09T14:15:15.415Z,19.50
2018-04-09T14:17:18.056Z,19.50
2018-04-09T14:19:21.440Z,19.40
2018-04-09T14:21:24.800Z,19.40
2018-04-09T14:23:27.421Z,19.40
2018-04-09T14:25:30.011Z,19.40
2018-04-09T14:27:32.616Z,19.30
2018-04-09T14:29:37.434Z,19.20
2018-04-09T14:31:40.839Z,19.20
2018-04-09T14:33:45.007Z,19.20
2018-04-09T14:35:47.655Z,19.20
2018-04-09T14:37:51.044Z,19.10
2018-04-09T14:39:53.750Z,19.10
2018-04-09T14:41:56.371Z,19.00
2018-04-09T14:43:58.979Z,19.00
2018-04-09T14:46:02.384Z,18.90
2018-04-09T14:48:04.965Z,18.90
2018-04-09T14:50:07.593Z,18.90
2018-04-09T14:52:10.193Z,18.80
2018-04-09T14:54:13.565Z,18.80
2018-04-09T14:56:16.157Z,18.80
2018-04-09T14:58:19.512Z,18.80
2018-04-09T15:00:22.148Z,18.80
2018-04-09T15:02:24.797Z,18.90
2018-04-09T15:04:28.185Z,18.90
2018-04-09T15:06:30.773Z,18.90
2018-04-09T15:08:34.128Z,19.00
2018-04-09T15:10:36.736Z,19.00
2018-04-09T15:12:40.106Z,19.00
2018-04-09T15:14:42.706Z,19.00
2018-04-09T15:16:46.062Z,19.20
2018-04-09T15:18:48.668Z,19.20
2018-04-09T15:20:52.083Z,19.30
2018-04-09T15:22:54.715Z,19.30
2018-04-09T15:24:57.342Z,19.40
2018-04-09T15:26:59.949Z,19.30
2018-04-09T15:29:02.542Z,19.40
2018-04-09T15:31:05.173Z,19.40
2018-04-09T15:33:07.789Z,19.30
2018-04-09T15:35:10.408Z,19.40
2018-04-09T15:37:13.091Z,19.40
2018-04-09T15:39:15.691Z,19.30
2018-04-09T15:41:19.068Z,19.40
2018-04-09T15:43:21.667Z,19.40
2018-04-09T15:45:24.275Z,19.40
2018-04-09T15:47:27.631Z,19.30
2018-04-09T15:49:30.217Z,19.30
2018-04-09T15:51:32.835Z,19.30
2018-04-09T15:53:35.433Z,19.20
2018-04-09T15:55:38.041Z,19.20
2018-04-09T15:57:41.423Z,19.10
2018-04-09T15:59:44.019Z,19.10
2018-04-09T16:01:47.428Z,19.00
2018-04-09T16:03:50.802Z,19.10
2018-04-09T16:05:53.460Z,19.10
2018-04-09T16:07:56.084Z,19.20
2018-04-09T16:09:58.910Z,19.30
2018-04-09T16:12:01.527Z,19.20
2018-04-09T16:14:04.892Z,19.20
2018-04-09T16:16:07.531Z,19.20
2018-04-09T16:18:10.135Z,19.20
2018-04-09T16:20:12.727Z,19.20
2018-04-09T16:22:16.116Z,19.10
2018-04-09T16:24:18.708Z,19.10
2018-04-09T16:26:22.075Z,19.00
2018-04-09T16:28:24.707Z,18.90
2018-04-09T16:30:27.287Z,18.80
2018-04-09T16:32:29.927Z,18.70
2018-04-09T16:34:33.310Z,18.70
2018-04-09T16:36:36.695Z,18.70
2018-04-09T16:38:39.314Z,18.60
2018-04-09T16:40:41.932Z,18.60
2018-04-09T16:42:44.558Z,18.50
2018-04-09T16:44:47.166Z,18.50
2018-04-09T16:46:49.782Z,18.40
2018-04-09T16:48:53.139Z,18.20
2018-04-09T16:50:55.726Z,18.20
2018-04-09T16:52:58.347Z,18.20
2018-04-09T16:55:00.951Z,18.10
2018-04-09T16:57:03.672Z,18.00
2018-04-09T16:59:07.031Z,18.00
2018-04-09T17:01:09.620Z,17.90
2018-04-09T17:03:12.271Z,17.90
2018-04-09T17:05:14.922Z,17.80
2018-04-09T17:07:17.548Z,17.80
2018-04-09T17:09:20.987Z,17.60
2018-04-09T17:11:23.609Z,17.60
2018-04-09T17:13:26.215Z,17.60
2018-04-09T17:15:29.588Z,17.40
2018-04-09T17:17:32.967Z,17.30
2018-04-09T17:19:35.556Z,17.30
2018-04-09T17:21:38.152Z,17.30
2018-04-09T17:23:40.783Z,17.20
2018-04-09T17:25:43.392Z,17.10
2018-04-09T17:27:46.808Z,17.00
2018-04-09T17:29:49.435Z,17.00
2018-04-09T17:31:52.079Z,17.00
2018-04-09T17:33:54.700Z,16.90
2018-04-09T17:35:58.056Z,16.70
2018-04-09T17:38:00.708Z,16.70
2018-04-09T17:40:04.069Z,16.60
2018-04-09T17:42:07.444Z,16.60
2018-04-09T17:44:10.081Z,16.60
2018-04-09T17:46:12.684Z,16.50
2018-04-09T17:48:15.313Z,16.50
2018-04-09T17:50:17.919Z,16.40
2018-04-09T17:52:20.532Z,16.30
2018-04-09T17:54:23.924Z,16.30
2018-04-09T17:56:27.318Z,16.20
2018-04-09T17:58:30.732Z,16.10
2018-04-09T18:00:33.355Z,16.10
2018-04-09T18:02:36.044Z,16.00
2018-04-09T18:04:38.680Z,15.90
2018-04-09T18:06:41.290Z,15.80
2018-04-09T18:08:43.940Z,15.80
2018-04-09T18:10:46.584Z,15.70
2018-04-09T18:12:53.136Z,15.60
2018-04-09T18:14:56.540Z,15.50
2018-04-09T18:16:59.164Z,15.50
2018-04-09T18:19:01.787Z,15.50
2018-04-09T18:21:04.404Z,15.40
2018-04-09T18:23:07.042Z,15.30
2018-04-09T18:25:09.775Z,15.30
2018-04-09T18:27:12.392Z,15.20
2018-04-09T18:29:15.809Z,15.20
2018-04-09T18:31:18.464Z,15.20
2018-04-09T18:33:22.531Z,15.10
2018-04-09T18:35:25.224Z,15.00
2018-04-09T18:37:28.589Z,14.90
2018-04-09T18:39:31.240Z,14.90
2018-04-09T18:41:34.630Z,14.90
2018-04-09T18:43:38.150Z,14.80
2018-04-09T18:45:40.792Z,14.80
2018-04-09T18:47:43.400Z,14.70
2018-04-09T18:49:46.075Z,14.70
2018-04-09T18:51:48.692Z,14.60
2018-04-09T18:53:51.300Z,14.60
2018-04-09T18:57:57.089Z,14.50
2018-04-09T18:59:59.837Z,14.40
2018-04-09T19:02:02.505Z,14.30
2018-04-09T19:04:05.114Z,14.30
2018-04-09T19:06:07.746Z,14.10
2018-04-09T19:08:10.355Z,14.10
2018-04-09T19:10:13.001Z,14.10
2018-04-09T19:12:15.676Z,14.00
2018-04-09T19:14:18.352Z,14.00
2018-04-09T19:16:21.082Z,14.00
2018-04-09T19:18:24.459Z,13.90
2018-04-09T19:20:27.104Z,13.90
2018-04-09T19:22:29.735Z,13.90
2018-04-09T19:24:33.123Z,13.70
2018-04-09T19:26:35.775Z,13.70
2018-04-09T19:28:38.487Z,13.70
2018-04-09T19:30:41.904Z,13.60
2018-04-09T19:32:44.509Z,13.60
2018-04-09T19:34:52.765Z,13.60
2018-04-09T19:39:25.722Z,13.50
2018-04-09T19:41:28.399Z,13.50
2018-04-09T19:43:31.028Z,13.50
2018-04-09T19:45:33.692Z,13.50
2018-04-09T19:47:37.056Z,13.40
2018-04-09T19:49:39.694Z,13.50
2018-04-09T19:51:42.344Z,13.40
2018-04-09T19:53:44.982Z,13.40
2018-04-09T19:55:47.611Z,13.40
2018-04-09T19:57:50.232Z,13.30
2018-04-09T19:59:52.830Z,13.20
2018-04-09T20:01:56.228Z,13.00
2018-04-09T20:03:59.608Z,13.00
2018-04-09T20:06:02.314Z,12.90
2018-04-09T20:08:04.957Z,13.00
2018-04-09T20:10:07.555Z,13.00
2018-04-09T20:12:10.257Z,12.90
2018-04-09T20:14:12.892Z,12.90
2018-04-09T20:16:16.395Z,12.90
2018-04-09T20:18:19.013Z,12.90
2018-04-09T20:20:21.672Z,12.80
2018-04-09T20:22:24.292Z,12.70
2018-04-09T20:24:26.904Z,12.70
2018-04-09T20:26:29.557Z,12.70
2018-04-09T20:28:32.967Z,12.70
2018-04-09T20:30:36.357Z,12.70
2018-04-09T20:32:39.028Z,12.70
2018-04-09T20:34:42.416Z,12.60
2018-04-09T20:36:45.796Z,12.60
2018-04-09T20:38:49.243Z,12.50
2018-04-09T20:40:51.854Z,12.50
2018-04-09T20:42:54.557Z,12.50
2018-04-09T20:44:57.915Z,12.50
2018-04-09T20:47:00.530Z,12.50
2018-04-09T20:49:03.898Z,12.50
2018-04-09T20:51:06.491Z,12.60
2018-04-09T20:53:09.902Z,12.60
2018-04-09T20:55:12.521Z,12.60
2018-04-09T20:57:15.156Z,12.60
2018-04-09T20:59:17.787Z,12.60
2018-04-09T21:01:20.400Z,12.60
2018-04-09T21:03:23.061Z,12.60
2018-04-09T21:05:26.408Z,12.60
2018-04-09T21:07:29.048Z,12.60
2018-04-09T21:09:31.661Z,12.60
2018-04-09T21:11:34.261Z,12.60
2018-04-09T21:13:37.771Z,12.60
2018-04-09T21:15:41.194Z,12.70
2018-04-09T21:17:43.843Z,12.70
2018-04-09T21:19:46.463Z,12.70
2018-04-09T21:21:49.070Z,12.70
2018-04-09T21:23:51.781Z,12.70
2018-04-09T21:25:54.439Z,12.70
2018-04-09T21:27:57.880Z,12.70
2018-04-09T21:30:00.504Z,12.70
2018-04-09T21:32:03.900Z,12.70
2018-04-09T21:34:07.315Z,12.70
2018-04-09T21:36:09.932Z,12.70
2018-04-09T21:38:12.560Z,12.70
2018-04-09T21:40:15.180Z,12.60
2018-04-09T21:42:17.801Z,12.60
2018-04-09T21:44:20.447Z,12.60
2018-04-09T21:46:23.140Z,12.60
2018-04-09T21:48:26.529Z,12.60
2018-04-09T21:50:29.898Z,12.60
2018-04-09T21:52:32.612Z,12.50
2018-04-09T21:54:35.995Z,12.60
2018-04-09T21:56:39.464Z,12.60
2018-04-09T21:58:42.100Z,12.60
2018-04-09T22:00:44.708Z,12.60
2018-04-09T22:02:47.330Z,12.60
2018-04-09T22:06:56.978Z,12.50
2018-04-09T22:11:08.578Z,12.50
2018-04-09T22:13:11.276Z,12.50
2018-04-09T22:15:13.910Z,12.50
2018-04-09T22:17:17.264Z,12.40
2018-04-09T22:19:20.649Z,12.30
2018-04-09T22:21:23.271Z,12.30
2018-04-09T22:23:26.656Z,12.10
2018-04-09T22:25:29.408Z,12.00
2018-04-09T22:27:32.000Z,12.10
2018-04-09T22:29:34.609Z,12.00
2018-04-09T22:31:37.231Z,12.00
2018-04-09T22:33:39.915Z,12.00
2018-04-09T22:35:42.536Z,12.00
2018-04-09T22:37:45.132Z,12.10
2018-04-09T22:39:47.756Z,12.10
2018-04-09T22:41:51.118Z,12.10
2018-04-09T22:43:53.712Z,12.00
2018-04-09T22:45:56.331Z,12.00
2018-04-09T22:47:59.171Z,12.00
2018-04-09T22:50:01.807Z,12.00
2018-04-09T22:52:04.428Z,12.00
2018-04-09T22:54:07.063Z,11.80
2018-04-09T22:56:09.683Z,11.80
2018-04-09T22:58:13.115Z,11.70
2018-04-09T23:00:15.739Z,11.70
2018-04-09T23:02:19.122Z,11.60
2018-04-09T23:04:21.723Z,11.50
2018-04-09T23:06:25.389Z,11.50
2018-04-09T23:08:27.999Z,11.50
2018-04-09T23:10:31.396Z,11.40
2018-04-09T23:12:34.070Z,11.40
2018-04-09T23:14:37.449Z,11.30
2018-04-09T23:16:40.855Z,11.40
2018-04-09T23:18:44.231Z,11.30
2018-04-09T23:20:46.860Z,11.30
2018-04-09T23:22:49.472Z,11.30
2018-04-09T23:24:52.098Z,11.30
2018-04-09T23:26:54.720Z,11.20
2018-04-09T23:28:57.331Z,11.20
2018-04-09T23:30:59.960Z,11.10
2018-04-09T23:33:02.571Z,11.00
2018-04-09T23:35:05.935Z,10.90
2018-04-09T23:37:08.756Z,10.90
2018-04-09T23:39:11.351Z,10.90
2018-04-09T23:41:13.992Z,10.90
2018-04-09T23:43:17.411Z,10.80
2018-04-09T23:45:20.007Z,10.80
2018-04-09T23:47:22.642Z,10.80
2018-04-09T23:49:25.257Z,10.80
2018-04-09T23:51:28.643Z,10.70
2018-04-09T23:53:31.252Z,10.70
2018-04-09T23:55:33.871Z,10.70
2018-04-09T23:57:36.580Z,10.70
2018-04-09T23:59:39.200Z,10.60
